Time;durP1;ratioP1;P1;durP2;ratioP2;P2;SDS_P1;SDS_P2;PMS_P1;PMS_P2;Temp;Humidity;BMP_temperature;BMP_pressure;BME280_temperature;BME280_humidity;BME280_pressure;Samples;Min_cycle;Max_cycle;Signal;HPM_P1;HPM_P2
2021/12/29 00:00:52;;;;;;;39.40;12.85;;;7.00;99.90;;;;;;4970085;28;20038;-82
2021/12/29 00:03:18;;;;;;;33.97;12.55;;;6.90;99.90;;;;;;4959080;28;20092;-82
2021/12/29 00:05:44;;;;;;;28.20;11.35;;;6.90;99.90;;;;;;4959703;28;20131;-82
2021/12/29 00:08:10;;;;;;;25.48;10.57;;;6.90;99.90;;;;;;4991196;28;20042;-82
2021/12/29 00:10:37;;;;;;;25.95;10.40;;;6.90;99.90;;;;;;4988389;28;20108;-82
2021/12/29 00:13:04;;;;;;;28.15;10.80;;;6.80;99.90;;;;;;4994520;28;20041;-82
2021/12/29 00:15:30;;;;;;;25.00;10.35;;;6.90;99.90;;;;;;4975384;28;20354;-82
2021/12/29 00:17:57;;;;;;;36.92;10.82;;;6.80;99.90;;;;;;4960385;28;20044;-82
2021/12/29 00:20:28;;;;;;;31.48;10.38;;;6.90;99.90;;;;;;4973937;28;20044;-82
2021/12/29 00:23:03;;;;;;;32.75;10.77;;;6.90;99.90;;;;;;5005330;28;20121;-82
2021/12/29 00:25:30;;;;;;;26.42;9.90;;;6.80;99.90;;;;;;4989041;28;20048;-82
2021/12/29 00:27:58;;;;;;;35.58;10.98;;;6.80;99.90;;;;;;4972001;28;20038;-82
2021/12/29 00:30:25;;;;;;;35.22;10.68;;;6.80;99.90;;;;;;4972737;28;20041;-82
2021/12/29 00:32:54;;;;;;;33.20;10.98;;;6.80;99.90;;;;;;4966343;28;20080;-82
2021/12/29 00:35:41;;;;;;;34.92;11.20;;;6.80;99.90;;;;;;4993825;28;20050;-82
2021/12/29 00:38:34;;;;;;;28.15;10.65;;;6.80;99.90;;;;;;4982412;28;20092;-83
2021/12/29 00:41:39;;;;;;;33.03;10.85;;;6.90;99.90;;;;;;4903901;28;20055;-82
2021/12/29 00:44:24;;;;;;;28.02;9.85;;;6.80;99.90;;;;;;4917044;28;20035;-82
2021/12/29 00:47:09;;;;;;;38.97;11.48;;;6.80;99.90;;;;;;4972834;28;20047;-81
2021/12/29 00:49:37;;;;;;;37.78;11.48;;;6.90;99.90;;;;;;5003254;28;20042;-81
2021/12/29 00:52:07;;;;;;;30.65;10.27;;;6.80;99.90;;;;;;5006562;28;20046;-80
2021/12/29 00:54:37;;;;;;;40.50;11.73;;;6.90;99.90;;;;;;4984145;28;20046;-81
2021/12/29 00:57:03;;;;;;;46.63;12.32;;;6.80;99.90;;;;;;4997403;28;20045;-83
2021/12/29 00:59:29;;;;;;;39.85;11.82;;;6.80;99.90;;;;;;5022703;28;20058;-81
2021/12/29 01:01:56;;;;;;;44.35;12.85;;;6.80;99.90;;;;;;5003870;28;20102;-81
2021/12/29 01:04:22;;;;;;;48.13;13.10;;;6.90;99.90;;;;;;4997162;28;20042;-81
2021/12/29 01:06:49;;;;;;;57.72;13.55;;;6.90;99.90;;;;;;5012539;28;20050;-83
2021/12/29 01:09:15;;;;;;;41.53;14.07;;;6.90;99.90;;;;;;5022555;28;20050;-81
2021/12/29 01:11:42;;;;;;;58.63;14.90;;;7.00;99.90;;;;;;4966347;28;20045;-82
2021/12/29 01:14:11;;;;;;;55.70;14.57;;;7.00;99.90;;;;;;5013632;28;20041;-81
2021/12/29 01:16:38;;;;;;;66.43;17.17;;;7.00;99.90;;;;;;5010569;28;20501;-80
2021/12/29 01:19:18;;;;;;;66.90;16.60;;;6.90;99.90;;;;;;5009152;28;20410;-81
2021/12/29 01:21:46;;;;;;;78.80;16.73;;;7.00;99.90;;;;;;5012412;28;20049;-81
2021/12/29 01:24:13;;;;;;;87.05;18.40;;;7.00;99.90;;;;;;4981281;28;20038;-81
2021/12/29 01:26:42;;;;;;;71.55;18.48;;;6.90;99.90;;;;;;5009005;28;20129;-81
2021/12/29 01:29:12;;;;;;;90.85;17.88;;;7.00;99.90;;;;;;4983022;28;20107;-80
2021/12/29 01:31:40;;;;;;;106.28;19.30;;;7.00;99.90;;;;;;4993765;28;20052;-81
2021/12/29 01:34:07;;;;;;;91.35;18.73;;;7.00;99.90;;;;;;4988625;28;20108;-82
2021/12/29 01:36:37;;;;;;;109.82;19.67;;;7.00;99.90;;;;;;5001163;28;20037;-82
2021/12/29 01:39:06;;;;;;;96.93;19.63;;;7.00;99.90;;;;;;4996465;28;20107;-82
2021/12/29 01:41:33;;;;;;;131.68;22.25;;;7.00;99.90;;;;;;5010912;28;20073;-81
2021/12/29 01:44:00;;;;;;;125.97;22.45;;;7.00;99.90;;;;;;4995749;28;20734;-84
2021/12/29 01:46:26;;;;;;;137.20;22.63;;;7.00;99.90;;;;;;5002191;28;20056;-82
2021/12/29 01:48:52;;;;;;;158.77;22.55;;;7.00;99.90;;;;;;4972495;28;20129;-81
2021/12/29 01:51:20;;;;;;;135.35;23.63;;;7.10;99.90;;;;;;4978831;28;20469;-81
2021/12/29 01:53:51;;;;;;;176.05;24.13;;;7.00;99.90;;;;;;5008456;28;20050;-82
2021/12/29 01:56:17;;;;;;;149.23;22.87;;;7.10;99.90;;;;;;4985818;28;20081;-82
2021/12/29 01:58:43;;;;;;;163.00;24.65;;;7.10;99.90;;;;;;4978224;28;20307;-82
2021/12/29 02:01:09;;;;;;;153.75;25.30;;;7.00;99.90;;;;;;4990394;28;20523;-82
2021/12/29 02:03:35;;;;;;;159.95;24.25;;;7.10;99.90;;;;;;4988421;28;20073;-82
2021/12/29 02:06:02;;;;;;;168.23;24.52;;;7.00;99.90;;;;;;4985715;28;20517;-82
2021/12/29 02:08:28;;;;;;;166.23;24.45;;;7.10;99.90;;;;;;4986945;28;20060;-82
2021/12/29 02:10:57;;;;;;;134.77;22.98;;;7.00;99.90;;;;;;4985641;28;20050;-81
2021/12/29 02:13:23;;;;;;;142.30;22.13;;;7.10;99.90;;;;;;4983259;28;20069;-82
2021/12/29 02:15:50;;;;;;;137.48;19.67;;;7.10;99.90;;;;;;4992939;28;20052;-81
2021/12/29 02:18:19;;;;;;;104.80;19.00;;;7.00;99.90;;;;;;5005213;28;20066;-81
2021/12/29 02:20:49;;;;;;;118.68;18.17;;;7.10;99.90;;;;;;4975483;28;20113;-81
2021/12/29 02:23:28;;;;;;;141.38;20.85;;;7.10;99.90;;;;;;4997371;28;20783;-82
2021/12/29 02:25:57;;;;;;;148.85;19.70;;;7.10;99.90;;;;;;4998282;28;20050;-81
2021/12/29 02:28:39;;;;;;;139.88;19.27;;;7.10;99.90;;;;;;4996463;28;20248;-81
2021/12/29 02:31:06;;;;;;;145.57;20.55;;;7.10;99.90;;;;;;5000174;28;20050;-81
2021/12/29 02:33:32;;;;;;;131.95;19.52;;;7.10;99.90;;;;;;4979135;28;20038;-81
2021/12/29 02:36:00;;;;;;;144.25;20.00;;;7.10;99.90;;;;;;4998356;28;20051;-81
2021/12/29 02:38:34;;;;;;;108.00;18.13;;;7.10;99.90;;;;;;5008057;28;20046;-81
2021/12/29 02:41:05;;;;;;;121.22;19.33;;;7.10;99.90;;;;;;4981184;28;20486;-81
2021/12/29 02:43:36;;;;;;;103.22;19.02;;;7.20;99.90;;;;;;5007829;28;20049;-81
2021/12/29 02:46:08;;;;;;;100.10;18.65;;;7.20;99.90;;;;;;4997882;28;20107;-81
2021/12/29 02:48:38;;;;;;;77.57;17.80;;;7.10;99.90;;;;;;4977101;28;20454;-81
2021/12/29 02:51:07;;;;;;;93.72;18.80;;;7.20;99.90;;;;;;5018123;28;20413;-81
2021/12/29 02:53:35;;;;;;;91.53;18.20;;;7.20;99.90;;;;;;4998305;28;20088;-81
2021/12/29 02:56:03;;;;;;;71.28;17.00;;;7.20;99.90;;;;;;4991230;28;20485;-81
2021/12/29 02:58:31;;;;;;;69.75;17.40;;;7.20;99.90;;;;;;5000643;28;20567;-82
2021/12/29 03:00:59;;;;;;;83.70;17.85;;;7.30;99.90;;;;;;4993552;28;20128;-81
2021/12/29 03:03:27;;;;;;;54.45;16.05;;;7.30;99.90;;;;;;4999752;28;20069;-81
2021/12/29 03:05:54;;;;;;;67.53;17.80;;;7.30;99.90;;;;;;5005442;28;20052;-81
2021/12/29 03:08:22;;;;;;;74.53;19.50;;;7.20;99.90;;;;;;4991559;28;20478;-81
2021/12/29 03:10:52;;;;;;;68.93;18.63;;;7.30;99.90;;;;;;5008092;28;20641;-81
2021/12/29 03:13:20;;;;;;;72.00;18.90;;;7.30;99.90;;;;;;5007027;28;20061;-81
2021/12/29 03:15:47;;;;;;;73.05;20.13;;;7.40;99.90;;;;;;4995883;28;20089;-81
2021/12/29 03:18:13;;;;;;;92.55;20.95;;;7.40;99.90;;;;;;4983107;28;20056;-82
2021/12/29 03:20:39;;;;;;;84.47;23.63;;;7.40;99.90;;;;;;5016482;28;20041;-81
2021/12/29 03:23:06;;;;;;;112.15;24.98;;;7.40;99.90;;;;;;4992532;28;20037;-81
2021/12/29 03:25:32;;;;;;;89.78;23.48;;;7.40;99.90;;;;;;5006249;28;20037;-81
2021/12/29 03:28:00;;;;;;;98.47;23.85;;;7.40;99.90;;;;;;4994327;28;20152;-81
2021/12/29 03:30:28;;;;;;;116.68;25.52;;;7.40;99.90;;;;;;5006492;28;20041;-81
2021/12/29 03:33:03;;;;;;;95.13;26.17;;;7.40;99.90;;;;;;5003551;28;20069;-81
2021/12/29 03:35:35;;;;;;;98.65;25.38;;;7.40;99.90;;;;;;4995634;28;20038;-81
2021/12/29 03:38:04;;;;;;;106.55;27.42;;;7.40;99.90;;;;;;4978512;28;20046;-81
2021/12/29 03:40:30;;;;;;;103.90;26.10;;;7.40;99.90;;;;;;4998162;28;20045;-81
2021/12/29 03:42:57;;;;;;;102.93;27.00;;;7.40;99.90;;;;;;4964406;28;20041;-82
2021/12/29 03:45:23;;;;;;;112.35;28.10;;;7.50;99.90;;;;;;4971056;28;20494;-80
2021/12/29 03:47:50;;;;;;;90.18;26.55;;;7.40;99.90;;;;;;4968500;28;20050;-83
2021/12/29 03:50:16;;;;;;;98.95;26.00;;;7.50;99.90;;;;;;4972597;28;20472;-81
2021/12/29 03:52:42;;;;;;;96.88;28.08;;;7.50;99.90;;;;;;4998997;28;20053;-82
2021/12/29 03:55:09;;;;;;;85.38;26.35;;;7.40;99.90;;;;;;5012133;28;20045;-81
2021/12/29 03:57:36;;;;;;;100.00;27.90;;;7.40;99.90;;;;;;4981306;28;20167;-82
2021/12/29 04:00:08;;;;;;;93.80;25.67;;;7.60;99.90;;;;;;5007745;28;20136;-82
2021/12/29 04:02:37;;;;;;;97.47;26.55;;;7.60;99.90;;;;;;4999691;28;20045;-81
2021/12/29 04:05:04;;;;;;;92.70;26.08;;;7.50;99.90;;;;;;4991153;28;20073;-81
2021/12/29 04:07:31;;;;;;;87.63;25.40;;;7.60;99.90;;;;;;5004308;28;20088;-81
2021/12/29 04:09:57;;;;;;;86.53;27.00;;;7.60;99.90;;;;;;4983840;28;20045;-81
2021/12/29 04:12:24;;;;;;;84.20;25.70;;;7.50;99.90;;;;;;4970774;28;20127;-81
2021/12/29 04:14:50;;;;;;;75.93;25.95;;;7.50;99.90;;;;;;4981477;28;20046;-80
2021/12/29 04:17:24;;;;;;;85.45;26.40;;;7.60;99.90;;;;;;4972690;28;20130;-81
2021/12/29 04:22:35;;;;;;;73.30;26.70;;;7.50;99.90;;;;;;5010838;28;20129;-80
2021/12/29 04:25:02;;;;;;;88.00;29.15;;;7.50;99.90;;;;;;4964746;28;20179;-81
2021/12/29 04:27:28;;;;;;;80.03;26.35;;;7.60;99.90;;;;;;4999753;28;20060;-81
2021/12/29 04:29:54;;;;;;;74.82;27.23;;;7.50;99.90;;;;;;4998555;28;20041;-81
2021/12/29 04:32:21;;;;;;;87.97;28.65;;;7.50;99.90;;;;;;5012213;28;20053;-81
2021/12/29 04:34:47;;;;;;;86.22;28.17;;;7.50;99.90;;;;;;4995725;28;20053;-81
2021/12/29 04:37:13;;;;;;;82.70;27.23;;;7.60;99.90;;;;;;4985325;28;20042;-81
2021/12/29 04:39:39;;;;;;;103.68;30.30;;;7.50;99.90;;;;;;5010440;28;20125;-81
2021/12/29 04:42:05;;;;;;;84.63;28.83;;;7.60;99.90;;;;;;5006626;28;20050;-82
2021/12/29 04:44:31;;;;;;;84.68;27.50;;;7.50;99.90;;;;;;4997716;28;20029;-81
2021/12/29 04:46:58;;;;;;;76.72;26.77;;;7.60;99.90;;;;;;4987201;28;20037;-81
2021/12/29 04:49:29;;;;;;;73.43;25.63;;;7.50;99.90;;;;;;5020123;28;20056;-81
2021/12/29 04:52:02;;;;;;;78.82;26.25;;;7.60;99.90;;;;;;5012332;28;20041;-80
2021/12/29 04:54:30;;;;;;;68.10;25.65;;;7.60;99.90;;;;;;5000313;28;20041;-81
2021/12/29 04:56:57;;;;;;;54.58;23.08;;;7.60;99.90;;;;;;5000856;28;20033;-81
2021/12/29 04:59:25;;;;;;;79.22;25.95;;;7.60;99.90;;;;;;4963855;28;20046;-81
2021/12/29 05:01:52;;;;;;;80.55;26.02;;;7.60;99.90;;;;;;4968688;28;20038;-81
2021/12/29 05:04:30;;;;;;;62.17;24.45;;;7.60;99.90;;;;;;5006242;28;20397;-81
2021/12/29 05:09:40;;;;;;;57.80;23.65;;;7.60;99.90;;;;;;4978477;28;20046;-81
2021/12/29 05:12:07;;;;;;;64.53;24.35;;;7.60;99.90;;;;;;4970062;28;20042;-81
2021/12/29 05:14:35;;;;;;;64.72;25.00;;;7.60;99.90;;;;;;5001728;28;20664;-81
2021/12/29 05:17:03;;;;;;;60.92;24.25;;;7.60;99.90;;;;;;4993374;28;20080;-80
2021/12/29 05:19:29;;;;;;;69.82;25.63;;;7.60;99.90;;;;;;4975853;28;20084;-81
2021/12/29 05:21:55;;;;;;;58.70;24.63;;;7.60;99.90;;;;;;4964944;28;20786;-81
2021/12/29 05:24:21;;;;;;;67.50;24.33;;;7.50;99.90;;;;;;5000630;28;20099;-81
2021/12/29 05:26:48;;;;;;;62.65;25.73;;;7.50;99.90;;;;;;4970359;28;20053;-81
2021/12/29 05:29:14;;;;;;;62.47;25.10;;;7.50;99.90;;;;;;5018808;28;20071;-81
2021/12/29 05:31:40;;;;;;;75.50;26.08;;;7.50;99.90;;;;;;5001240;28;20049;-81
2021/12/29 05:34:06;;;;;;;77.53;27.80;;;7.50;99.90;;;;;;5009261;28;20107;-81
2021/12/29 05:36:32;;;;;;;69.63;27.02;;;7.50;99.90;;;;;;5021578;28;20045;-81
2021/12/29 05:38:58;;;;;;;60.90;26.10;;;7.50;99.90;;;;;;4987362;28;20104;-81
2021/12/29 05:41:25;;;;;;;64.80;27.58;;;7.40;99.90;;;;;;4999494;28;20050;-81
2021/12/29 05:43:51;;;;;;;69.45;28.02;;;7.50;99.90;;;;;;4983226;28;20045;-81
2021/12/29 05:46:17;;;;;;;62.00;26.38;;;7.40;99.90;;;;;;4981725;28;20124;-81
2021/12/29 05:48:45;;;;;;;70.93;27.70;;;7.50;99.90;;;;;;5018735;28;20073;-81
2021/12/29 05:51:12;;;;;;;77.53;28.52;;;7.40;99.90;;;;;;5033783;28;20049;-81
2021/12/29 05:53:42;;;;;;;63.40;27.77;;;7.40;99.90;;;;;;4986842;28;20104;-81
2021/12/29 05:56:09;;;;;;;79.95;31.15;;;7.50;99.90;;;;;;4977225;28;20165;-81
2021/12/29 05:58:37;;;;;;;70.28;27.33;;;7.50;99.90;;;;;;4992330;28;20072;-81
2021/12/29 06:01:04;;;;;;;75.53;28.80;;;7.50;99.90;;;;;;4984903;28;20053;-81
2021/12/29 06:03:30;;;;;;;65.05;27.33;;;7.40;99.90;;;;;;4968598;28;20043;-81
2021/12/29 06:05:56;;;;;;;77.28;29.35;;;7.50;99.90;;;;;;5010092;28;20041;-81
2021/12/29 06:08:22;;;;;;;66.28;27.85;;;7.40;99.90;;;;;;4991791;28;20045;-82
2021/12/29 06:10:49;;;;;;;72.50;27.98;;;7.50;99.90;;;;;;5001730;28;20086;-81
2021/12/29 06:13:15;;;;;;;67.45;26.75;;;7.60;99.90;;;;;;4982451;28;20397;-81
2021/12/29 06:15:41;;;;;;;77.00;27.92;;;7.50;99.90;;;;;;4980872;28;20039;-81
2021/12/29 06:18:07;;;;;;;77.68;28.45;;;7.60;99.90;;;;;;5017461;28;20053;-81
2021/12/29 06:20:38;;;;;;;71.55;26.90;;;7.50;99.90;;;;;;5004334;28;20048;-81
2021/12/29 06:23:06;;;;;;;67.22;25.13;;;7.60;99.90;;;;;;4952194;28;20041;-82
2021/12/29 06:25:33;;;;;;;66.85;26.77;;;7.50;99.90;;;;;;4993943;28;20137;-81
2021/12/29 06:28:00;;;;;;;62.20;24.80;;;7.60;99.90;;;;;;5015883;28;20085;-81
2021/12/29 06:30:26;;;;;;;67.15;24.63;;;7.60;99.90;;;;;;4970901;28;20087;-81
2021/12/29 06:32:52;;;;;;;83.30;25.65;;;7.50;99.90;;;;;;5015143;28;20067;-81
2021/12/29 06:35:19;;;;;;;66.47;24.27;;;7.60;99.90;;;;;;5016915;28;20049;-81
2021/12/29 06:37:45;;;;;;;79.82;25.55;;;7.50;99.90;;;;;;4974949;28;20038;-81
2021/12/29 06:40:13;;;;;;;62.85;23.98;;;7.50;99.90;;;;;;4996888;28;20045;-81
2021/12/29 06:42:39;;;;;;;62.38;22.58;;;7.60;99.90;;;;;;5008310;28;20045;-81
2021/12/29 06:45:07;;;;;;;63.35;23.30;;;7.60;99.90;;;;;;4986848;28;20154;-82
2021/12/29 06:47:33;;;;;;;71.95;23.33;;;7.60;99.90;;;;;;4987792;28;20116;-81
2021/12/29 06:49:59;;;;;;;64.90;23.27;;;7.60;99.90;;;;;;5031828;28;20073;-82
2021/12/29 06:52:26;;;;;;;64.80;21.90;;;7.60;99.90;;;;;;4971263;28;20077;-81
2021/12/29 06:54:52;;;;;;;66.82;22.80;;;7.60;99.90;;;;;;4986874;28;20042;-82
2021/12/29 06:57:19;;;;;;;74.72;24.35;;;7.60;99.90;;;;;;4975334;28;20042;-82
2021/12/29 06:59:45;;;;;;;81.95;25.30;;;7.60;99.90;;;;;;4996955;28;20054;-82
2021/12/29 07:02:12;;;;;;;76.18;24.77;;;7.60;99.90;;;;;;5008786;28;20049;-82
2021/12/29 07:04:38;;;;;;;71.65;25.35;;;7.60;99.90;;;;;;4991238;28;20049;-83
2021/12/29 07:07:04;;;;;;;69.82;25.30;;;7.60;99.90;;;;;;4989839;28;20057;-81
2021/12/29 07:09:31;;;;;;;75.05;25.90;;;7.60;99.90;;;;;;4981514;28;20124;-81
2021/12/29 07:11:57;;;;;;;78.07;24.90;;;7.60;99.90;;;;;;5002172;28;20057;-81
2021/12/29 07:14:23;;;;;;;93.75;27.30;;;7.60;99.90;;;;;;4966611;28;20081;-81
2021/12/29 07:16:50;;;;;;;80.72;25.92;;;7.60;99.90;;;;;;5016014;28;20144;-79
2021/12/29 07:19:18;;;;;;;83.88;26.33;;;7.60;99.90;;;;;;5015316;28;20046;-81
2021/12/29 07:21:45;;;;;;;95.95;27.88;;;7.60;99.90;;;;;;4979328;28;20465;-79
2021/12/29 07:24:11;;;;;;;96.07;27.90;;;7.70;99.90;;;;;;5020720;28;20433;-82
2021/12/29 07:26:38;;;;;;;88.00;26.63;;;7.60;99.90;;;;;;4997866;28;20046;-81
2021/12/29 07:29:05;;;;;;;99.90;27.95;;;7.60;99.90;;;;;;4996438;28;20064;-81
2021/12/29 07:31:32;;;;;;;116.07;29.42;;;7.70;99.90;;;;;;5022528;28;20486;-81
2021/12/29 07:33:59;;;;;;;96.95;27.50;;;7.70;99.90;;;;;;4986612;28;20054;-81
2021/12/29 07:36:25;;;;;;;99.60;27.70;;;7.70;99.90;;;;;;5024703;28;20038;-81
2021/12/29 07:38:51;;;;;;;95.10;27.23;;;7.70;99.90;;;;;;4994027;28;20107;-81
2021/12/29 07:41:18;;;;;;;109.78;27.00;;;7.70;99.90;;;;;;4995566;28;20045;-81
2021/12/29 07:43:44;;;;;;;93.32;25.42;;;7.70;99.90;;;;;;4968083;28;20064;-82
2021/12/29 07:46:13;;;;;;;96.70;26.90;;;7.70;99.90;;;;;;4992840;28;20052;-81
2021/12/29 07:48:40;;;;;;;103.65;26.70;;;7.70;99.90;;;;;;5008992;28;20156;-81
2021/12/29 07:51:07;;;;;;;102.68;26.42;;;7.70;99.90;;;;;;5008879;28;20117;-81
2021/12/29 07:53:37;;;;;;;88.47;25.13;;;7.70;99.90;;;;;;4996070;28;20120;-81
2021/12/29 07:56:06;;;;;;;86.53;24.80;;;7.70;99.90;;;;;;5004205;28;20046;-82
2021/12/29 07:58:34;;;;;;;87.72;24.30;;;7.70;99.90;;;;;;4992232;28;20301;-81
2021/12/29 08:01:02;;;;;;;88.80;25.13;;;7.70;99.90;;;;;;4975792;28;20073;-81
2021/12/29 08:03:28;;;;;;;91.50;24.75;;;7.70;99.90;;;;;;4976414;28;20038;-81
2021/12/29 08:05:55;;;;;;;82.22;24.67;;;7.70;99.90;;;;;;5000187;28;20098;-80
2021/12/29 08:08:22;;;;;;;78.57;23.52;;;7.70;99.90;;;;;;4966352;28;20419;-80
2021/12/29 08:10:48;;;;;;;88.90;24.40;;;7.70;99.90;;;;;;4981004;28;20084;-82
2021/12/29 08:13:14;;;;;;;76.68;23.65;;;7.70;99.90;;;;;;5009504;28;20614;-81
2021/12/29 08:15:40;;;;;;;83.93;24.65;;;7.70;99.90;;;;;;4979766;28;20038;-80
2021/12/29 08:18:06;;;;;;;90.05;24.92;;;7.70;99.90;;;;;;4998370;28;20561;-81
2021/12/29 08:20:35;;;;;;;129.13;69.57;;;7.70;99.90;;;;;;4990592;28;20049;-81
2021/12/29 08:23:04;;;;;;;82.40;25.15;;;7.70;99.90;;;;;;4989108;28;20172;-80
2021/12/29 08:25:30;;;;;;;85.63;22.98;;;7.70;99.90;;;;;;5035684;28;20033;-79
2021/12/29 08:27:57;;;;;;;80.30;24.50;;;7.70;99.90;;;;;;5031127;28;20042;-80
2021/12/29 08:30:23;;;;;;;68.05;23.60;;;7.70;99.90;;;;;;5001560;28;20057;-80
2021/12/29 08:32:50;;;;;;;74.38;24.08;;;7.70;99.90;;;;;;5008999;28;20037;-79
2021/12/29 08:35:16;;;;;;;84.28;25.08;;;7.70;99.90;;;;;;4980461;28;20049;-80
2021/12/29 08:37:42;;;;;;;82.05;25.80;;;7.80;99.90;;;;;;4999903;28;20048;-80
2021/12/29 08:40:10;;;;;;;77.70;22.70;;;7.70;99.90;;;;;;4999474;28;20374;-79
2021/12/29 08:42:37;;;;;;;98.13;25.60;;;7.80;99.90;;;;;;4987331;28;20046;-79
2021/12/29 08:45:06;;;;;;;96.55;24.92;;;7.90;99.90;;;;;;4967055;28;20049;-79
2021/12/29 08:47:33;;;;;;;98.47;23.98;;;7.80;99.90;;;;;;4976136;28;20165;-79
2021/12/29 08:49:59;;;;;;;87.43;23.92;;;7.70;99.90;;;;;;4990016;28;20058;-79
2021/12/29 08:52:25;;;;;;;96.13;24.20;;;7.80;99.90;;;;;;5023745;28;20052;-80
2021/12/29 08:54:51;;;;;;;113.50;25.80;;;7.80;99.90;;;;;;4990243;28;20061;-80
2021/12/29 08:57:17;;;;;;;100.75;23.92;;;7.80;99.90;;;;;;5007169;28;20078;-80
2021/12/29 08:59:43;;;;;;;87.00;23.00;;;7.80;99.90;;;;;;4990587;28;20151;-80
2021/12/29 09:02:10;;;;;;;111.90;23.95;;;7.80;99.90;;;;;;4960491;28;20046;-81
2021/12/29 09:04:37;;;;;;;108.85;22.40;;;7.80;99.90;;;;;;5026734;28;20103;-80
2021/12/29 09:07:03;;;;;;;117.47;23.70;;;7.90;99.90;;;;;;4961050;28;20077;-81
2021/12/29 09:09:29;;;;;;;113.60;23.45;;;7.80;99.90;;;;;;4993385;28;20057;-80
2021/12/29 09:11:58;;;;;;;125.38;24.52;;;7.80;99.90;;;;;;4979498;28;20520;-80
2021/12/29 09:14:24;;;;;;;143.43;25.83;;;7.90;99.90;;;;;;4978451;28;20050;-80
2021/12/29 09:16:50;;;;;;;219.02;129.38;;;7.90;99.90;;;;;;4960855;28;20056;-81
2021/12/29 09:19:16;;;;;;;150.82;30.80;;;8.00;99.90;;;;;;5006529;28;20125;-82
2021/12/29 09:21:44;;;;;;;143.75;26.05;;;8.00;99.90;;;;;;4981680;28;20065;-81
2021/12/29 09:24:11;;;;;;;162.55;26.75;;;8.00;99.90;;;;;;5010595;28;20057;-84
2021/12/29 09:26:38;;;;;;;156.77;26.23;;;7.90;99.90;;;;;;4991780;28;20046;-84
2021/12/29 09:29:04;;;;;;;132.32;24.65;;;8.00;99.90;;;;;;5008472;28;20482;-84
2021/12/29 09:31:34;;;;;;;111.57;22.40;;;8.00;99.90;;;;;;4991951;28;20045;-84
2021/12/29 09:34:01;;;;;;;116.97;22.60;;;8.00;99.90;;;;;;4991447;28;20046;-84
2021/12/29 09:36:28;;;;;;;95.65;21.25;;;8.00;99.90;;;;;;4991687;28;20049;-84
2021/12/29 09:38:54;;;;;;;86.82;20.77;;;8.00;99.90;;;;;;4992397;28;20069;-84
2021/12/29 09:41:20;;;;;;;57.65;17.27;;;8.10;99.90;;;;;;5007843;28;20046;-84
2021/12/29 09:43:47;;;;;;;53.38;16.15;;;8.00;99.90;;;;;;4989476;28;20403;-84
2021/12/29 09:46:14;;;;;;;52.38;16.45;;;8.10;99.90;;;;;;5007971;28;20050;-84
2021/12/29 09:48:41;;;;;;;69.97;37.55;;;8.10;99.90;;;;;;5009136;28;20049;-81
2021/12/29 09:51:11;;;;;;;57.58;15.50;;;8.10;99.90;;;;;;5001679;28;20119;-81
2021/12/29 09:53:39;;;;;;;45.13;14.30;;;8.20;99.90;;;;;;4974240;28;20129;-80
2021/12/29 09:56:05;;;;;;;43.88;13.15;;;8.20;99.90;;;;;;4986691;28;20048;-84
2021/12/29 09:58:32;;;;;;;45.08;15.40;;;8.20;99.90;;;;;;4981977;28;20512;-83
2021/12/29 10:01:05;;;;;;;40.70;13.43;;;8.20;99.90;;;;;;4957418;28;20037;-81
2021/12/29 10:03:32;;;;;;;40.88;13.80;;;8.20;99.90;;;;;;4987913;28;20042;-80
2021/12/29 10:06:06;;;;;;;45.47;14.05;;;8.20;99.90;;;;;;4974530;28;20619;-83
2021/12/29 10:08:34;;;;;;;37.72;13.93;;;8.20;99.90;;;;;;4990573;28;20057;-81
2021/12/29 10:11:09;;;;;;;38.10;13.40;;;8.30;99.90;;;;;;5017080;28;20619;-80
2021/12/29 10:13:39;;;;;;;31.23;13.10;;;8.30;99.90;;;;;;4991062;28;20046;-82
2021/12/29 10:16:15;;;;;;;34.90;13.98;;;8.30;99.90;;;;;;4990255;28;20046;-80
2021/12/29 10:18:43;;;;;;;37.53;14.95;;;8.30;99.90;;;;;;5007975;28;20131;-79
2021/12/29 10:21:18;;;;;;;34.70;14.77;;;8.30;99.90;;;;;;5009520;28;20033;-80
2021/12/29 10:23:50;;;;;;;35.75;14.75;;;8.40;99.90;;;;;;5005657;28;20046;-79
2021/12/29 10:26:23;;;;;;;35.88;15.98;;;8.40;99.90;;;;;;4985748;28;20354;-79
2021/12/29 10:28:53;;;;;;;38.42;14.50;;;8.40;99.90;;;;;;5010358;28;20054;-79
2021/12/29 10:31:23;;;;;;;32.85;14.50;;;8.40;99.90;;;;;;4994058;28;20537;-80
2021/12/29 10:33:56;;;;;;;34.85;15.88;;;8.40;99.90;;;;;;4994222;28;20069;-79
2021/12/29 10:36:39;;;;;;;33.95;15.57;;;8.40;99.90;;;;;;5006368;28;20037;-82
2021/12/29 10:39:19;;;;;;;33.90;14.88;;;8.30;99.90;;;;;;4984065;28;20046;-81
2021/12/29 10:42:10;;;;;;;30.80;16.13;;;8.30;99.90;;;;;;5008775;28;20044;-81
2021/12/29 10:44:59;;;;;;;31.92;15.02;;;8.30;99.90;;;;;;4992884;28;20045;-80
2021/12/29 10:47:25;;;;;;;33.55;16.38;;;8.40;99.90;;;;;;5011135;28;20406;-82
2021/12/29 10:49:54;;;;;;;36.72;16.58;;;8.40;99.90;;;;;;5009622;28;20125;-81
2021/12/29 10:52:50;;;;;;;31.00;13.70;;;8.30;99.90;;;;;;5018013;28;20417;-80
2021/12/29 10:55:18;;;;;;;28.25;13.65;;;8.20;99.90;;;;;;5006011;28;20057;-79
2021/12/29 10:57:46;;;;;;;30.20;13.98;;;8.30;99.90;;;;;;4994469;28;20060;-82
2021/12/29 11:00:19;;;;;;;29.10;14.05;;;8.30;99.90;;;;;;4992351;28;20057;-81
2021/12/29 11:02:48;;;;;;;26.30;13.02;;;8.30;99.90;;;;;;4992068;28;20486;-81
2021/12/29 11:05:14;;;;;;;30.75;13.00;;;8.30;99.90;;;;;;4978575;28;20054;-80
2021/12/29 11:07:41;;;;;;;38.20;14.00;;;8.30;99.90;;;;;;4988646;28;20053;-80
2021/12/29 11:10:15;;;;;;;29.83;12.68;;;8.30;99.90;;;;;;4987123;28;20046;-80
2021/12/29 11:12:47;;;;;;;32.63;13.43;;;8.40;99.90;;;;;;4987219;28;20140;-80
2021/12/29 11:15:23;;;;;;;33.28;12.60;;;8.40;99.90;;;;;;5005669;28;20406;-78
2021/12/29 11:17:51;;;;;;;33.95;13.43;;;8.50;99.90;;;;;;5000781;28;20046;-78
2021/12/29 11:20:28;;;;;;;28.45;12.55;;;8.50;99.90;;;;;;4964871;28;20577;-79
2021/12/29 11:23:14;;;;;;;34.92;13.00;;;8.60;99.90;;;;;;4975570;28;20406;-79
2021/12/29 11:25:42;;;;;;;31.02;13.13;;;8.60;99.90;;;;;;5008828;28;20049;-79
2021/12/29 11:28:26;;;;;;;32.63;12.52;;;8.60;99.90;;;;;;4995082;28;20057;-79
2021/12/29 11:30:55;;;;;;;38.60;12.63;;;8.60;99.90;;;;;;4998569;28;20069;-82
2021/12/29 11:33:22;;;;;;;32.03;13.02;;;8.70;99.90;;;;;;4994722;28;20041;-80
2021/12/29 11:35:53;;;;;;;35.88;13.95;;;8.70;99.90;;;;;;4990680;28;20050;-80
2021/12/29 11:38:22;;;;;;;30.85;12.98;;;8.70;99.90;;;;;;4990605;28;20045;-80
2021/12/29 11:40:53;;;;;;;28.20;11.90;;;8.70;99.90;;;;;;5010406;28;20108;-79
2021/12/29 11:43:20;;;;;;;29.55;11.20;;;8.70;99.90;;;;;;4997843;28;20046;-80
2021/12/29 11:45:49;;;;;;;28.00;10.60;;;8.70;99.90;;;;;;4992007;28;20048;-80
2021/12/29 11:48:21;;;;;;;27.02;10.82;;;8.70;99.90;;;;;;4981994;28;20104;-80
2021/12/29 11:50:51;;;;;;;24.13;9.23;;;8.70;99.90;;;;;;4990395;28;20510;-80
2021/12/29 11:53:20;;;;;;;31.77;10.57;;;8.60;99.90;;;;;;4959624;28;20059;-79
2021/12/29 11:55:50;;;;;;;29.20;10.32;;;8.60;99.90;;;;;;4987328;28;20148;-80
2021/12/29 11:58:18;;;;;;;30.92;9.93;;;8.60;99.90;;;;;;5029502;28;20055;-80
2021/12/29 12:01:08;;;;;;;28.13;9.20;;;8.50;99.90;;;;;;4977939;28;20068;-80
2021/12/29 12:04:02;;;;;;;32.03;10.88;;;8.50;99.90;;;;;;5032514;28;20505;-80
2021/12/29 12:06:32;;;;;;;26.83;12.13;;;8.50;99.90;;;;;;4993836;28;20052;-80
2021/12/29 12:09:10;;;;;;;23.95;11.05;;;8.50;99.90;;;;;;4966211;28;20077;-80
2021/12/29 12:11:51;;;;;;;32.75;12.45;;;8.50;99.90;;;;;;5019446;28;20572;-80
2021/12/29 12:14:20;;;;;;;;;;;8.40;99.90;;;;;;4998218;28;20048;-80
2021/12/29 12:17:00;;;;;;;27.13;12.50;;;8.40;99.90;;;;;;5020754;28;19921;-80
2021/12/29 12:19:31;;;;;;;27.65;12.88;;;8.50;99.90;;;;;;5005505;28;20086;-80
2021/12/29 12:22:16;;;;;;;31.55;13.63;;;8.40;99.90;;;;;;5012960;28;20033;-80
2021/12/29 12:25:04;;;;;;;29.25;13.35;;;8.50;99.90;;;;;;5013817;28;20049;-80
2021/12/29 12:27:36;;;;;;;26.83;13.35;;;8.40;99.90;;;;;;5005434;28;20069;-80
2021/12/29 12:30:08;;;;;;;25.80;14.10;;;8.40;99.90;;;;;;4985218;28;20523;-80
2021/12/29 12:32:53;;;;;;;30.25;13.98;;;8.40;99.90;;;;;;5011383;28;20111;-80
2021/12/29 12:35:31;;;;;;;22.63;13.30;;;8.40;99.90;;;;;;5022393;28;20049;-80
2021/12/29 12:37:58;;;;;;;31.27;13.48;;;8.40;99.90;;;;;;5000677;28;20041;-80
2021/12/29 12:40:26;;;;;;;26.90;14.80;;;8.40;99.90;;;;;;5018105;28;20044;-80
2021/12/29 12:43:10;;;;;;;32.90;14.90;;;8.40;99.90;;;;;;4998168;28;20506;-80
2021/12/29 12:45:39;;;;;;;34.55;16.55;;;8.40;99.90;;;;;;4996763;28;20052;-80
2021/12/29 12:48:26;;;;;;;35.25;16.75;;;8.40;99.90;;;;;;5007207;28;20052;-81
2021/12/29 12:50:54;;;;;;;29.92;15.60;;;8.50;99.90;;;;;;4981583;28;20069;-80